Time;durP1;ratioP1;P1;durP2;ratioP2;P2;SDS_P1;SDS_P2;PMS_P1;PMS_P2;Temp;Humidity;BMP_temperature;BMP_pressure;BME280_temperature;BME280_humidity;BME280_pressure;Samples;Min_cycle;Max_cycle;Signal;HPM_P1;HPM_P2
2023/11/03 00:02:20;;;;;;;1999.90;999.90;;;8.80;99.90;;;;;;5051196;28;20434;-71
2023/11/03 00:04:47;;;;;;;1999.90;999.90;;;8.80;99.90;;;;;;5053256;28;20302;-70
2023/11/03 00:07:14;;;;;;;1999.90;999.90;;;8.80;99.90;;;;;;5050876;28;20037;-70
2023/11/03 00:09:39;;;;;;;;;;;8.90;99.90;;;;;;5042817;28;20440;-70
2023/11/03 00:12:09;;;;;;;1999.90;999.90;;;8.80;99.90;;;;;;5052111;28;19917;-71
2023/11/03 00:14:34;;;;;;;1999.90;999.90;;;8.80;99.90;;;;;;5050882;28;20021;-70
2023/11/03 00:17:01;;;;;;;1999.90;999.90;;;8.80;99.90;;;;;;5049196;28;20029;-71
2023/11/03 00:19:30;;;;;;;1999.90;999.90;;;8.80;99.90;;;;;;5053591;28;20043;-70
2023/11/03 00:21:57;;;;;;;1999.90;999.90;;;8.90;99.90;;;;;;5048863;28;20068;-86
2023/11/03 00:24:23;;;;;;;1999.90;999.90;;;8.80;99.90;;;;;;5042181;28;20025;-70
2023/11/03 00:26:54;;;;;;;1999.90;999.90;;;8.80;99.90;;;;;;5054506;28;20419;-79
2023/11/03 00:29:23;;;;;;;1999.90;999.90;;;8.80;99.90;;;;;;5054419;28;20021;-71
2023/11/03 00:31:49;;;;;;;1999.90;999.90;;;8.80;99.90;;;;;;5050771;28;20067;-69
2023/11/03 00:34:15;;;;;;;1999.90;999.90;;;8.80;99.90;;;;;;5047760;28;20052;-69
2023/11/03 00:36:48;;;;;;;1999.90;999.90;;;8.80;99.90;;;;;;5040652;28;20470;-70
2023/11/03 00:39:18;;;;;;;1999.90;999.90;;;8.80;99.90;;;;;;5053342;28;20112;-70
2023/11/03 00:41:47;;;;;;;1999.90;999.90;;;8.80;99.90;;;;;;5054409;28;20024;-69
2023/11/03 00:44:14;;;;;;;1999.90;999.90;;;8.80;99.90;;;;;;5037394;28;20030;-77
2023/11/03 00:46:41;;;;;;;;;;;8.80;99.90;;;;;;5053497;28;20053;-70
2023/11/03 00:49:07;;;;;;;;;;;8.80;99.90;;;;;;5051994;28;19912;-69
2023/11/03 00:51:33;;;;;;;1999.90;999.90;;;8.80;99.90;;;;;;5048132;28;19949;-70
2023/11/03 00:54:00;;;;;;;1999.90;999.90;;;8.80;99.90;;;;;;5054059;28;20060;-71
2023/11/03 00:56:27;;;;;;;1999.90;999.90;;;8.90;99.90;;;;;;5052496;28;20051;-70
2023/11/03 00:58:53;;;;;;;1999.90;999.90;;;8.90;99.90;;;;;;5054103;28;20108;-70
2023/11/03 01:01:19;;;;;;;1999.90;999.90;;;8.80;99.90;;;;;;5053971;28;20028;-71
2023/11/03 01:03:46;;;;;;;1999.90;999.90;;;8.90;99.90;;;;;;5048853;28;20040;-70
2023/11/03 01:06:11;;;;;;;1999.90;999.90;;;8.90;99.90;;;;;;5054149;28;20036;-71
2023/11/03 01:08:37;;;;;;;1999.90;999.90;;;8.80;99.90;;;;;;5053374;28;20032;-70
2023/11/03 01:11:03;;;;;;;1999.90;999.90;;;8.90;99.90;;;;;;5053196;28;20028;-71
2023/11/03 01:13:30;;;;;;;1999.90;999.90;;;8.90;99.90;;;;;;5052687;28;20082;-69
2023/11/03 01:15:56;;;;;;;1999.90;999.90;;;8.90;99.90;;;;;;5053507;28;20127;-70
2023/11/03 01:18:22;;;;;;;1999.90;999.90;;;8.90;99.90;;;;;;5049385;28;20316;-71
2023/11/03 01:20:48;;;;;;;1999.90;999.90;;;8.90;99.90;;;;;;5051709;28;20029;-70
2023/11/03 01:23:17;;;;;;;1999.90;999.90;;;8.90;99.90;;;;;;5052597;28;20028;-70
2023/11/03 01:25:45;;;;;;;1999.90;999.90;;;8.90;99.90;;;;;;5053040;28;20029;-70
2023/11/03 01:28:13;;;;;;;1999.90;999.90;;;8.90;99.90;;;;;;5053229;28;20377;-71
2023/11/03 01:30:42;;;;;;;1999.90;999.90;;;8.90;99.90;;;;;;5053986;28;20027;-70
2023/11/03 01:33:08;;;;;;;1999.90;999.90;;;8.90;99.90;;;;;;5032436;28;20416;-71
2023/11/03 01:35:37;;;;;;;1999.90;999.90;;;8.90;99.90;;;;;;5033987;28;20044;-81
2023/11/03 01:38:04;;;;;;;1999.90;999.90;;;8.90;99.90;;;;;;5050010;28;20049;-71
2023/11/03 01:40:30;;;;;;;1999.90;999.90;;;8.90;99.90;;;;;;5042284;28;20029;-70
2023/11/03 01:42:56;;;;;;;1999.90;999.90;;;8.90;99.90;;;;;;5047208;28;20029;-71
2023/11/03 01:45:22;;;;;;;1999.90;999.90;;;8.90;99.90;;;;;;5053582;28;20435;-71
2023/11/03 01:47:48;;;;;;;1999.90;999.90;;;8.80;99.90;;;;;;5052759;28;20040;-69
2023/11/03 01:50:15;;;;;;;1999.90;999.90;;;8.80;99.90;;;;;;5047700;28;20045;-71
2023/11/03 01:52:42;;;;;;;1999.90;999.90;;;8.90;99.90;;;;;;5051486;28;20032;-71
2023/11/03 01:55:11;;;;;;;1999.90;999.90;;;8.90;99.90;;;;;;5048404;28;20026;-69
2023/11/03 01:57:39;;;;;;;1999.90;999.90;;;8.90;99.90;;;;;;5049824;28;20029;-70
2023/11/03 02:00:07;;;;;;;1999.90;999.90;;;8.90;99.90;;;;;;5052691;28;20071;-82
2023/11/03 02:02:34;;;;;;;1999.90;999.90;;;8.90;99.90;;;;;;5044660;28;20028;-70
2023/11/03 02:05:02;;;;;;;1999.90;999.90;;;8.90;99.90;;;;;;5050891;28;20025;-71
2023/11/03 02:07:27;;;;;;;1999.90;999.90;;;8.90;99.90;;;;;;5033281;28;20018;-72
2023/11/03 02:09:53;;;;;;;1999.90;999.90;;;8.90;99.90;;;;;;5040658;28;20135;-72
2023/11/03 02:12:19;;;;;;;1999.90;999.90;;;8.90;99.90;;;;;;5053236;28;20025;-70
2023/11/03 02:14:45;;;;;;;1999.90;999.90;;;8.90;99.90;;;;;;5041574;28;20026;-71
2023/11/03 02:17:11;;;;;;;1999.90;999.90;;;9.00;99.90;;;;;;5052396;28;20032;-71
2023/11/03 02:19:37;;;;;;;1999.90;999.90;;;9.00;99.90;;;;;;5040388;28;20033;-70
2023/11/03 02:22:03;;;;;;;1999.90;999.90;;;8.90;99.90;;;;;;5053073;28;20056;-70
2023/11/03 02:24:28;;;;;;;1999.90;999.90;;;8.90;99.90;;;;;;5052579;28;20059;-71
2023/11/03 02:26:54;;;;;;;1999.90;999.90;;;9.00;99.90;;;;;;5053041;28;20365;-71
2023/11/03 02:29:20;;;;;;;1999.90;999.90;;;9.00;99.90;;;;;;5050887;28;20030;-71
2023/11/03 02:31:46;;;;;;;1999.90;999.90;;;9.00;99.90;;;;;;5056385;28;20032;-70
2023/11/03 02:34:12;;;;;;;1999.90;999.90;;;9.10;99.90;;;;;;5040532;28;20609;-80
2023/11/03 02:36:37;;;;;;;1999.90;999.90;;;9.00;99.90;;;;;;5056607;28;20033;-70
2023/11/03 02:39:04;;;;;;;1999.90;999.90;;;9.10;99.90;;;;;;5046614;28;20036;-78
2023/11/03 02:41:30;;;;;;;1999.90;999.90;;;9.10;99.90;;;;;;5044786;28;20017;-71
2023/11/03 02:43:55;;;;;;;1999.90;999.90;;;9.10;99.90;;;;;;5054551;28;20040;-71
2023/11/03 02:46:23;;;;;;;1999.90;999.90;;;9.10;99.90;;;;;;5054765;28;20021;-70
2023/11/03 02:48:49;;;;;;;1999.90;999.90;;;9.10;99.90;;;;;;5023117;28;20100;-78
2023/11/03 02:51:15;;;;;;;1999.90;999.90;;;9.10;99.90;;;;;;5050039;28;20132;-71
2023/11/03 02:53:41;;;;;;;1999.90;999.90;;;9.10;99.90;;;;;;5056745;28;20101;-71
2023/11/03 02:56:07;;;;;;;1999.90;999.90;;;9.10;99.90;;;;;;5055673;28;20377;-70
2023/11/03 02:58:37;;;;;;;1999.90;999.90;;;9.10;99.90;;;;;;5049440;28;20283;-70
2023/11/03 03:01:07;;;;;;;1999.90;999.90;;;9.10;99.90;;;;;;5051256;28;20024;-71
2023/11/03 03:03:33;;;;;;;1999.90;999.90;;;9.10;99.90;;;;;;5054618;28;20396;-71
2023/11/03 03:05:59;;;;;;;1999.90;999.90;;;9.10;99.90;;;;;;5056353;28;20059;-71
2023/11/03 03:08:24;;;;;;;1999.90;999.90;;;9.10;99.90;;;;;;5049467;28;20323;-70
2023/11/03 03:10:50;;;;;;;1999.90;999.90;;;9.10;99.90;;;;;;5055582;28;20040;-76
2023/11/03 03:13:16;;;;;;;1999.90;999.90;;;9.20;99.90;;;;;;5055425;28;20025;-71
2023/11/03 03:15:41;;;;;;;1999.90;999.90;;;9.10;99.90;;;;;;5048937;28;20043;-70
2023/11/03 03:18:08;;;;;;;1999.90;999.90;;;9.20;99.90;;;;;;5048874;28;20370;-71
2023/11/03 03:20:35;;;;;;;1999.90;999.90;;;9.10;99.90;;;;;;5043161;28;20542;-70
2023/11/03 03:23:01;;;;;;;;;;;9.10;99.90;;;;;;5049895;28;20029;-71
2023/11/03 03:25:26;;;;;;;1999.90;999.90;;;9.10;99.90;;;;;;5037077;28;19962;-72
2023/11/03 03:27:54;;;;;;;1999.90;999.90;;;9.10;99.90;;;;;;5052241;28;20059;-72
2023/11/03 03:30:20;;;;;;;1999.90;999.90;;;9.20;99.90;;;;;;5041714;28;20021;-71
2023/11/03 03:32:46;;;;;;;1999.90;999.90;;;9.10;99.90;;;;;;5045756;28;20158;-71
2023/11/03 03:35:12;;;;;;;1999.90;999.90;;;9.10;99.90;;;;;;5040741;28;20117;-72
2023/11/03 03:37:37;;;;;;;1999.90;999.90;;;9.10;99.90;;;;;;5039427;28;20079;-71
2023/11/03 03:40:04;;;;;;;1999.90;999.90;;;9.20;99.90;;;;;;5044525;28;20172;-77
2023/11/03 03:42:29;;;;;;;1999.90;999.90;;;9.10;99.90;;;;;;5042276;28;20028;-71
2023/11/03 03:44:55;;;;;;;1999.90;999.90;;;9.10;99.90;;;;;;5046428;28;20455;-82
2023/11/03 03:47:21;;;;;;;1999.90;999.90;;;9.10;99.90;;;;;;5051335;28;20420;-70
2023/11/03 03:49:47;;;;;;;1999.90;999.90;;;9.10;99.90;;;;;;5036288;28;20037;-71
2023/11/03 03:52:12;;;;;;;1999.90;999.90;;;9.10;99.90;;;;;;5047687;28;20262;-70
2023/11/03 03:54:38;;;;;;;1999.90;999.90;;;9.10;99.90;;;;;;5051444;28;20021;-75
2023/11/03 03:57:04;;;;;;;1999.90;999.90;;;9.10;99.90;;;;;;5034212;28;20090;-71
2023/11/03 03:59:29;;;;;;;1999.90;999.90;;;9.10;99.90;;;;;;5043218;28;20144;-71
2023/11/03 04:01:55;;;;;;;1999.90;999.90;;;9.10;99.90;;;;;;5038001;28;20416;-71
2023/11/03 04:04:21;;;;;;;1999.90;999.90;;;9.00;99.90;;;;;;5040774;28;20407;-71
2023/11/03 04:06:47;;;;;;;1999.90;999.90;;;9.00;99.90;;;;;;5048696;28;20033;-71
2023/11/03 04:09:13;;;;;;;1999.90;999.90;;;9.00;99.90;;;;;;5035268;28;20428;-70
2023/11/03 04:11:39;;;;;;;1999.90;999.90;;;9.00;99.90;;;;;;5049121;28;20076;-72
2023/11/03 04:14:05;;;;;;;1999.90;999.90;;;9.00;99.90;;;;;;5035572;28;20045;-71
2023/11/03 04:16:37;;;;;;;1999.90;999.90;;;9.10;99.90;;;;;;5046817;28;20807;-70
2023/11/03 04:19:03;;;;;;;1999.90;999.90;;;9.00;99.90;;;;;;5044653;28;20323;-79
2023/11/03 04:21:29;;;;;;;1999.90;999.90;;;9.10;99.90;;;;;;5051133;28;20025;-70
2023/11/03 04:23:57;;;;;;;1999.90;999.90;;;9.00;99.90;;;;;;5046083;28;20044;-71
2023/11/03 04:26:24;;;;;;;1999.90;999.90;;;9.10;99.90;;;;;;5039798;28;20037;-71
2023/11/03 04:28:50;;;;;;;1999.90;999.90;;;9.10;99.90;;;;;;5033902;28;20025;-70
2023/11/03 04:31:16;;;;;;;1999.90;999.90;;;9.00;99.90;;;;;;5045582;28;20024;-70
2023/11/03 04:33:43;;;;;;;1999.90;999.90;;;9.00;99.90;;;;;;5052665;28;20327;-72
2023/11/03 04:36:10;;;;;;;1999.90;999.90;;;9.00;99.90;;;;;;5051127;28;20041;-74
2023/11/03 04:38:36;;;;;;;1999.90;999.90;;;9.10;99.90;;;;;;5050778;28;20036;-71
2023/11/03 04:41:02;;;;;;;1999.90;999.90;;;9.10;99.90;;;;;;5038429;28;20320;-71
2023/11/03 04:43:28;;;;;;;1999.90;999.90;;;9.10;99.90;;;;;;5050309;28;20116;-71
2023/11/03 04:45:53;;;;;;;1999.90;999.90;;;9.10;99.90;;;;;;5054467;28;20356;-71
2023/11/03 04:48:19;;;;;;;1999.90;999.90;;;9.10;99.90;;;;;;5054444;28;20035;-71
2023/11/03 04:50:46;;;;;;;1999.90;999.90;;;9.20;99.90;;;;;;5039301;28;20054;-71
2023/11/03 04:53:12;;;;;;;1999.90;999.90;;;9.10;99.90;;;;;;5044958;28;20021;-72
2023/11/03 04:55:38;;;;;;;1999.90;999.90;;;9.10;99.90;;;;;;5053241;28;20032;-72
2023/11/03 04:58:03;;;;;;;1999.90;999.90;;;9.10;99.90;;;;;;5053549;28;20021;-72
2023/11/03 05:00:29;;;;;;;1999.90;999.90;;;9.10;99.90;;;;;;5053390;28;20111;-72
2023/11/03 05:02:55;;;;;;;1999.90;999.90;;;9.20;99.90;;;;;;5049483;28;20032;-82
2023/11/03 05:05:21;;;;;;;1999.90;999.90;;;9.10;99.90;;;;;;5054079;28;20422;-72
2023/11/03 05:07:47;;;;;;;1999.90;999.90;;;9.10;99.90;;;;;;5048152;28;20032;-71
2023/11/03 05:10:13;;;;;;;1999.90;999.90;;;9.10;99.90;;;;;;5054059;28;20044;-73
2023/11/03 05:12:39;;;;;;;1999.90;999.90;;;9.10;99.90;;;;;;5052434;28;20035;-72
2023/11/03 05:15:08;;;;;;;1999.90;999.90;;;9.20;99.90;;;;;;5052082;28;20024;-81
2023/11/03 05:17:34;;;;;;;1999.90;999.90;;;9.20;99.90;;;;;;5045814;28;20040;-70
2023/11/03 05:20:00;;;;;;;1999.90;999.90;;;9.20;99.90;;;;;;5049631;28;20423;-72
2023/11/03 05:22:25;;;;;;;1999.90;999.90;;;9.20;99.90;;;;;;5052773;28;20021;-73
2023/11/03 05:24:51;;;;;;;1999.90;999.90;;;9.20;99.90;;;;;;5052740;28;20064;-71
2023/11/03 05:27:18;;;;;;;1999.90;999.90;;;9.30;99.90;;;;;;5053857;28;20040;-72
2023/11/03 05:29:43;;;;;;;1999.90;999.90;;;9.20;99.90;;;;;;5052704;28;20056;-72
2023/11/03 05:32:11;;;;;;;1999.90;999.90;;;9.20;99.90;;;;;;5043628;28;20385;-72
2023/11/03 05:34:37;;;;;;;1999.90;999.90;;;9.20;99.90;;;;;;5052267;28;20049;-73
2023/11/03 05:37:03;;;;;;;1999.90;999.90;;;9.30;99.90;;;;;;5049289;28;20060;-78
2023/11/03 05:39:30;;;;;;;1999.90;999.90;;;9.30;99.90;;;;;;5052175;28;20086;-71
2023/11/03 05:41:56;;;;;;;1999.90;999.90;;;9.30;99.90;;;;;;5050385;28;20036;-72
2023/11/03 05:44:22;;;;;;;1999.90;999.90;;;9.30;99.90;;;;;;5054029;28;20021;-72
2023/11/03 05:46:47;;;;;;;1999.90;999.90;;;9.30;99.90;;;;;;5053231;28;20075;-76
2023/11/03 05:49:13;;;;;;;1999.90;999.90;;;9.30;99.90;;;;;;5052794;28;20070;-73
2023/11/03 05:51:39;;;;;;;1999.90;999.90;;;9.30;99.90;;;;;;5043401;28;20116;-71
2023/11/03 05:54:05;;;;;;;1999.90;999.90;;;9.20;99.90;;;;;;5047414;28;20013;-71
2023/11/03 05:56:31;;;;;;;1999.90;999.90;;;9.20;99.90;;;;;;5052749;28;20025;-71
2023/11/03 05:58:57;;;;;;;1999.90;999.90;;;9.20;99.90;;;;;;5053276;28;20043;-71
2023/11/03 06:01:22;;;;;;;1999.90;999.90;;;9.20;99.90;;;;;;5039648;28;20116;-72
2023/11/03 06:03:49;;;;;;;1999.90;999.90;;;9.30;99.90;;;;;;5039943;28;20047;-76
2023/11/03 06:06:16;;;;;;;1999.90;999.90;;;9.30;99.90;;;;;;5046438;28;20033;-71
2023/11/03 06:08:42;;;;;;;1999.90;999.90;;;9.20;99.90;;;;;;5041696;28;20033;-72
2023/11/03 06:11:08;;;;;;;1999.90;999.90;;;9.20;99.90;;;;;;5050149;28;20104;-70
2023/11/03 06:13:37;;;;;;;1999.90;999.90;;;9.20;99.90;;;;;;5055722;28;20108;-71
2023/11/03 06:16:07;;;;;;;1999.90;999.90;;;9.20;99.90;;;;;;5052115;28;20025;-71
2023/11/03 06:18:33;;;;;;;1999.90;999.90;;;9.20;99.90;;;;;;5051873;28;20116;-73
2023/11/03 06:20:59;;;;;;;1999.90;999.90;;;9.10;99.90;;;;;;5050203;28;20507;-73
2023/11/03 06:23:25;;;;;;;1999.90;999.90;;;9.10;99.90;;;;;;5052872;28;20450;-71
2023/11/03 06:25:51;;;;;;;1999.90;999.90;;;9.10;99.90;;;;;;5054985;28;20416;-72
2023/11/03 06:28:17;;;;;;;1999.90;999.90;;;9.10;99.90;;;;;;5051486;28;20477;-73
2023/11/03 06:30:44;;;;;;;1999.90;999.90;;;9.10;99.90;;;;;;5052696;28;20045;-72
2023/11/03 06:33:10;;;;;;;1999.90;999.90;;;9.20;99.90;;;;;;5055632;28;20434;-71
2023/11/03 06:35:36;;;;;;;1999.90;999.90;;;9.20;99.90;;;;;;5050523;28;20025;-71
2023/11/03 06:38:02;;;;;;;1999.90;999.90;;;9.20;99.90;;;;;;5051753;28;20086;-72
2023/11/03 06:40:28;;;;;;;1999.90;999.90;;;9.10;99.90;;;;;;5051329;28;20017;-72
2023/11/03 06:42:54;;;;;;;1999.90;999.90;;;9.10;99.90;;;;;;5039414;28;20172;-70
2023/11/03 06:45:20;;;;;;;1999.90;999.90;;;9.10;99.90;;;;;;5035940;28;20093;-72
2023/11/03 06:47:48;;;;;;;1999.90;999.90;;;9.10;99.90;;;;;;5036838;28;20479;-71
2023/11/03 06:50:14;;;;;;;1999.90;999.90;;;9.10;99.90;;;;;;5046581;28;20041;-71
2023/11/03 06:52:40;;;;;;;1999.90;999.90;;;9.10;99.90;;;;;;5054207;28;20033;-70
2023/11/03 06:55:08;;;;;;;1999.90;999.90;;;9.10;99.90;;;;;;5047782;28;20036;-78
2023/11/03 06:57:37;;;;;;;1999.90;999.90;;;9.10;99.90;;;;;;5049070;28;20025;-70
2023/11/03 07:00:04;;;;;;;1999.90;999.90;;;9.10;99.90;;;;;;5056426;28;20025;-72
2023/11/03 07:02:31;;;;;;;1999.90;999.90;;;9.10;99.90;;;;;;5043313;28;20079;-71
2023/11/03 07:04:57;;;;;;;1999.90;999.90;;;9.10;99.90;;;;;;5054832;28;20323;-72
2023/11/03 07:07:23;;;;;;;1999.90;999.90;;;9.20;99.90;;;;;;5054544;28;20104;-71
2023/11/03 07:09:48;;;;;;;1999.90;999.90;;;9.20;99.90;;;;;;5053265;28;20121;-71
2023/11/03 07:12:14;;;;;;;1999.90;999.90;;;9.20;99.90;;;;;;5054276;28;20408;-81
2023/11/03 07:14:40;;;;;;;1999.90;999.90;;;9.20;99.90;;;;;;5055740;28;20053;-71
2023/11/03 07:17:05;;;;;;;1999.90;999.90;;;9.20;99.90;;;;;;5055034;28;20025;-72
2023/11/03 07:19:32;;;;;;;1999.90;999.90;;;9.20;99.90;;;;;;5053317;28;20029;-71
2023/11/03 07:21:57;;;;;;;1999.90;999.90;;;9.20;99.90;;;;;;5039955;28;20029;-70
2023/11/03 07:24:23;;;;;;;1999.90;999.90;;;9.10;99.90;;;;;;5048242;28;20037;-71
2023/11/03 07:26:52;;;;;;;1999.90;999.90;;;9.20;99.90;;;;;;5046140;28;20037;-71
2023/11/03 07:29:18;;;;;;;1999.90;999.90;;;9.20;99.90;;;;;;5046160;28;20036;-71
2023/11/03 07:31:46;;;;;;;1999.90;999.90;;;9.10;99.90;;;;;;5054652;28;20036;-71
2023/11/03 07:34:12;;;;;;;1999.90;999.90;;;9.10;99.90;;;;;;5054679;28;20495;-72
2023/11/03 07:36:39;;;;;;;1999.90;999.90;;;9.10;99.90;;;;;;5055031;28;20087;-71
2023/11/03 07:39:06;;;;;;;1999.90;999.90;;;9.10;99.90;;;;;;5055950;28;20048;-72
2023/11/03 07:41:33;;;;;;;1999.90;999.90;;;9.20;99.90;;;;;;5052434;28;20179;-71
2023/11/03 07:44:00;;;;;;;1999.90;999.90;;;9.20;99.90;;;;;;5054084;28;20111;-70
2023/11/03 07:46:30;;;;;;;1999.90;999.90;;;9.20;99.90;;;;;;5055715;28;20050;-78
2023/11/03 07:49:04;;;;;;;1999.90;999.90;;;9.20;99.90;;;;;;5055036;28;20156;-71
2023/11/03 07:51:30;;;;;;;1999.90;999.90;;;9.20;99.90;;;;;;5051429;28;20668;-72
2023/11/03 07:53:57;;;;;;;1999.90;999.90;;;9.20;99.90;;;;;;5053867;28;20104;-78
2023/11/03 07:56:24;;;;;;;1999.90;999.90;;;9.30;99.90;;;;;;5053255;28;20032;-73
2023/11/03 07:58:50;;;;;;;1999.90;999.90;;;9.30;99.90;;;;;;5042961;28;20023;-71
2023/11/03 08:01:16;;;;;;;1999.90;999.90;;;9.30;99.90;;;;;;5049843;28;20436;-69
2023/11/03 08:03:43;;;;;;;1999.90;999.90;;;9.30;99.90;;;;;;5043845;28;20040;-71
2023/11/03 08:06:10;;;;;;;;;;;9.40;99.90;;;;;;5045712;28;20033;-70
2023/11/03 08:08:37;;;;;;;1999.90;999.90;;;9.30;99.90;;;;;;5042236;28;19916;-72
2023/11/03 08:11:04;;;;;;;1999.90;999.90;;;9.30;99.90;;;;;;5047593;28;20025;-72
2023/11/03 08:13:30;;;;;;;1999.90;999.90;;;9.40;99.90;;;;;;5054645;28;20024;-71
2023/11/03 08:15:57;;;;;;;1999.90;999.90;;;9.40;99.90;;;;;;5068042;28;20025;-71
2023/11/03 08:18:23;;;;;;;1999.90;999.90;;;9.50;99.90;;;;;;5047770;28;20091;-71
2023/11/03 08:20:49;;;;;;;1999.90;999.90;;;9.50;99.90;;;;;;5044070;28;20029;-73
2023/11/03 08:23:16;;;;;;;1999.90;999.90;;;9.50;99.90;;;;;;5040061;28;20026;-72
2023/11/03 08:25:43;;;;;;;1999.90;999.90;;;9.50;99.90;;;;;;5059192;28;20079;-71
2023/11/03 08:28:10;;;;;;;1999.90;999.90;;;9.50;99.90;;;;;;5053654;28;20029;-74
2023/11/03 08:30:39;;;;;;;1999.90;999.90;;;9.60;99.90;;;;;;5052436;28;20076;-70
2023/11/03 08:33:09;;;;;;;1999.90;999.90;;;9.60;99.90;;;;;;5050580;28;20029;-70
2023/11/03 08:35:35;;;;;;;1999.90;999.90;;;9.60;99.90;;;;;;5042154;28;20078;-78
2023/11/03 08:38:03;;;;;;;1999.90;999.90;;;9.60;99.90;;;;;;5058212;28;20039;-70
2023/11/03 08:40:29;;;;;;;1999.90;999.90;;;9.60;99.90;;;;;;5055957;28;20094;-70
2023/11/03 08:42:56;;;;;;;1999.90;999.90;;;9.60;99.90;;;;;;5044496;28;20029;-70
2023/11/03 08:45:23;;;;;;;1999.90;999.90;;;9.70;99.90;;;;;;5039369;28;20021;-71
2023/11/03 08:47:51;;;;;;;1999.90;999.90;;;9.80;99.90;;;;;;5044463;28;20049;-71
2023/11/03 08:50:18;;;;;;;1999.90;999.90;;;9.80;99.90;;;;;;5057257;28;20390;-70
2023/11/03 08:52:44;;;;;;;1999.90;999.90;;;9.90;99.90;;;;;;5051293;28;20617;-71
2023/11/03 08:55:11;;;;;;;1999.90;999.90;;;9.90;99.90;;;;;;5041204;28;20042;-70
2023/11/03 08:57:38;;;;;;;;;;;9.90;99.90;;;;;;5043687;28;20032;-70
2023/11/03 09:00:09;;;;;;;1999.90;999.90;;;9.80;99.90;;;;;;5043536;28;20236;-74
2023/11/03 09:02:39;;;;;;;1999.90;999.90;;;9.80;99.90;;;;;;5048184;28;20033;-70
2023/11/03 09:05:07;;;;;;;1999.90;999.90;;;9.70;99.90;;;;;;5047695;28;20080;-71
2023/11/03 09:07:35;;;;;;;1999.90;999.90;;;9.70;99.90;;;;;;5034422;28;20029;-71
2023/11/03 09:10:06;;;;;;;1999.90;999.90;;;9.70;99.90;;;;;;5044881;28;20021;-70
2023/11/03 09:12:34;;;;;;;1999.90;999.90;;;9.70;99.90;;;;;;5044915;28;20032;-71
2023/11/03 09:15:03;;;;;;;1999.90;999.90;;;9.70;99.90;;;;;;5041726;28;20025;-70
2023/11/03 09:17:32;;;;;;;1999.90;999.90;;;9.70;99.90;;;;;;5039273;28;20040;-71
2023/11/03 09:19:58;;;;;;;1999.90;999.90;;;9.70;99.90;;;;;;5043878;28;20033;-70
2023/11/03 09:22:27;;;;;;;1999.90;999.90;;;9.70;99.90;;;;;;5033061;28;20413;-70
2023/11/03 09:24:56;;;;;;;1999.90;999.90;;;9.80;99.90;;;;;;5032321;28;20030;-70
2023/11/03 09:27:23;;;;;;;1999.90;999.90;;;9.80;99.90;;;;;;5037879;28;20075;-70
2023/11/03 09:29:49;;;;;;;1999.90;999.90;;;9.90;99.90;;;;;;5032543;28;20087;-70
2023/11/03 09:32:17;;;;;;;1999.90;999.90;;;9.90;99.90;;;;;;5034474;28;20025;-71
2023/11/03 09:34:45;;;;;;;1999.90;999.90;;;9.90;99.90;;;;;;5040036;28;20025;-71
2023/11/03 09:37:12;;;;;;;1999.90;999.90;;;9.80;99.90;;;;;;5032184;28;20439;-70
2023/11/03 09:39:39;;;;;;;1999.90;999.90;;;9.80;99.90;;;;;;5035262;28;20416;-76
2023/11/03 09:42:06;;;;;;;1999.90;999.90;;;9.80;99.90;;;;;;5031043;28;20021;-70
2023/11/03 09:44:33;;;;;;;1999.90;999.90;;;9.80;99.90;;;;;;5032612;28;20360;-70
2023/11/03 09:47:00;;;;;;;1999.90;999.90;;;9.80;99.90;;;;;;5033216;28;20044;-70
2023/11/03 09:49:29;;;;;;;1999.90;999.90;;;9.90;99.90;;;;;;5046810;28;20351;-70
2023/11/03 09:52:02;;;;;;;1999.90;999.90;;;10.00;99.90;;;;;;5051885;28;20325;-70
2023/11/03 09:54:31;;;;;;;1999.90;999.90;;;10.00;99.90;;;;;;5037664;28;20059;-70
2023/11/03 09:56:59;;;;;;;1999.90;999.90;;;9.90;99.90;;;;;;5051607;28;20036;-70
2023/11/03 09:59:25;;;;;;;1999.90;999.90;;;10.00;99.90;;;;;;5049003;28;20059;-70
2023/11/03 10:01:53;;;;;;;1999.90;999.90;;;10.00;99.90;;;;;;5038849;28;20032;-71
2023/11/03 10:04:21;;;;;;;1999.90;999.90;;;10.00;99.90;;;;;;5051808;28;20040;-70
2023/11/03 10:06:47;;;;;;;1999.90;999.90;;;9.90;99.90;;;;;;5031298;28;20029;-69
2023/11/03 10:09:16;;;;;;;1999.90;999.90;;;9.90;99.90;;;;;;5043601;28;20104;-70
2023/11/03 10:11:45;;;;;;;1999.90;999.90;;;9.90;99.90;;;;;;5051537;28;20029;-77
2023/11/03 10:14:11;;;;;;;1999.90;999.90;;;9.90;99.90;;;;;;5052255;28;20440;-70
2023/11/03 10:16:38;;;;;;;1999.90;999.90;;;9.90;99.90;;;;;;5051151;28;20029;-70
2023/11/03 10:19:05;;;;;;;1999.90;999.90;;;10.00;99.90;;;;;;5052305;28;20029;-71
2023/11/03 10:21:31;;;;;;;1999.90;999.90;;;10.10;99.90;;;;;;5050373;28;20037;-70
2023/11/03 10:23:58;;;;;;;1999.90;999.90;;;10.00;99.90;;;;;;5052086;28;20025;-70
2023/11/03 10:26:26;;;;;;;1999.90;999.90;;;10.00;99.90;;;;;;5051810;28;20040;-70
2023/11/03 10:28:52;;;;;;;1999.90;999.90;;;10.00;99.90;;;;;;5051769;28;20545;-71
2023/11/03 10:31:19;;;;;;;1999.90;999.90;;;10.00;99.90;;;;;;5050604;28;20322;-71
2023/11/03 10:33:45;;;;;;;1999.90;999.90;;;10.10;99.90;;;;;;5051597;28;20029;-70
2023/11/03 10:36:11;;;;;;;1999.90;999.90;;;10.00;99.90;;;;;;5051876;28;20021;-70
2023/11/03 10:38:37;;;;;;;1999.90;999.90;;;10.10;99.90;;;;;;5049848;28;20298;-71
2023/11/03 10:41:09;;;;;;;1999.90;999.90;;;10.10;99.90;;;;;;5047288;28;20026;-70
2023/11/03 10:43:45;;;;;;;1999.90;999.90;;;10.10;99.90;;;;;;5048830;28;20100;-70
2023/11/03 10:46:20;;;;;;;1999.90;999.90;;;10.10;99.90;;;;;;5051693;28;20119;-71
2023/11/03 10:48:51;;;;;;;1999.90;999.90;;;10.10;99.90;;;;;;5051058;28;20025;-70
2023/11/03 10:51:37;;;;;;;1999.90;999.90;;;10.10;99.90;;;;;;5052613;28;20037;-80
2023/11/03 10:54:12;;;;;;;;;;;10.00;99.90;;;;;;5056240;28;20025;-70
2023/11/03 10:56:38;;;;;;;1999.90;999.90;;;10.00;99.90;;;;;;5055459;28;19974;-78
2023/11/03 10:59:05;;;;;;;1999.90;999.90;;;10.00;99.90;;;;;;5055575;28;20063;-71
2023/11/03 11:01:51;;;;;;;1999.90;999.90;;;10.00;99.90;;;;;;5054907;28;20025;-70
2023/11/03 11:04:47;;;;;;;1999.90;999.90;;;10.00;99.90;;;;;;5054733;28;20696;-71
2023/11/03 11:07:17;;;;;;;1999.90;999.90;;;10.10;99.90;;;;;;5035289;28;20043;-77
2023/11/03 11:09:48;;;;;;;1999.90;999.90;;;10.10;99.90;;;;;;5036011;28;20113;-70
2023/11/03 11:12:14;;;;;;;1999.90;999.90;;;10.20;99.90;;;;;;5054059;28;20032;-70
2023/11/03 11:14:42;;;;;;;1999.90;999.90;;;10.20;99.90;;;;;;5052929;28;20409;-70
2023/11/03 11:17:24;;;;;;;1999.90;999.90;;;10.30;99.90;;;;;;5055596;28;20025;-71
2023/11/03 11:19:54;;;;;;;1999.90;999.90;;;10.50;99.90;;;;;;5053302;28;20028;-70
2023/11/03 11:22:21;;;;;;;1999.90;999.90;;;10.60;99.90;;;;;;5055266;28;20083;-71
2023/11/03 11:24:47;;;;;;;1999.90;999.90;;;10.80;99.90;;;;;;5054836;28;20028;-70
2023/11/03 11:27:19;;;;;;;1999.90;999.90;;;11.00;99.90;;;;;;5055641;28;20024;-70
2023/11/03 11:29:50;;;;;;;1999.90;999.90;;;11.20;99.90;;;;;;5065300;28;20031;-70
2023/11/03 11:32:17;;;;;;;1999.90;999.90;;;11.30;99.90;;;;;;5051343;28;20112;-71
2023/11/03 11:34:44;;;;;;;1999.90;999.90;;;11.40;99.90;;;;;;5055072;28;20029;-70
2023/11/03 11:37:27;;;;;;;1999.90;999.90;;;11.50;99.90;;;;;;5043227;28;20028;-71
2023/11/03 11:39:54;;;;;;;1999.90;999.90;;;11.70;99.90;;;;;;5051733;28;20036;-70
2023/11/03 11:42:22;;;;;;;1999.90;999.90;;;11.80;99.90;;;;;;5048279;28;20083;-70
2023/11/03 11:44:52;;;;;;;1999.90;999.90;;;11.90;99.90;;;;;;5050584;28;20103;-70
2023/11/03 11:47:25;;;;;;;1999.90;999.90;;;11.90;99.90;;;;;;5052692;28;20009;-79
2023/11/03 11:49:54;;;;;;;1999.90;999.90;;;12.00;99.90;;;;;;5046961;28;20411;-78
2023/11/03 11:52:23;;;;;;;1999.90;999.90;;;12.00;99.90;;;;;;5048194;28;20037;-70
2023/11/03 11:54:49;;;;;;;1999.90;999.90;;;12.00;99.90;;;;;;5043174;28;20065;-71
2023/11/03 11:57:15;;;;;;;1999.90;999.90;;;12.00;99.90;;;;;;5046226;28;20049;-70
2023/11/03 11:59:41;;;;;;;1999.90;999.90;;;12.10;99.90;;;;;;5045478;28;20441;-70
2023/11/03 12:02:08;;;;;;;1999.90;999.90;;;12.10;99.90;;;;;;5052093;28;20029;-70
2023/11/03 12:04:36;;;;;;;1999.90;999.90;;;12.20;99.90;;;;;;5053627;28;20262;-70
2023/11/03 12:07:05;;;;;;;1999.90;999.90;;;12.20;99.90;;;;;;5047211;28;20036;-79
2023/11/03 12:09:40;;;;;;;1999.90;999.90;;;12.20;99.90;;;;;;5048258;28;20384;-71